sensor_id;sensor_type;location;lat;lon;timestamp;P1;durP1;ratioP1;P2;durP2;ratioP2
16957;SDS011;8595;52.542;11.974;2023-04-06T00:01:36;7.03;;;4.43;;
16957;SDS011;8595;52.542;11.974;2023-04-06T00:04:03;7.07;;;4.37;;
16957;SDS011;8595;52.542;11.974;2023-04-06T00:06:30;8.63;;;4.90;;
16957;SDS011;8595;52.542;11.974;2023-04-06T00:08:59;8.33;;;4.77;;
16957;SDS011;8595;52.542;11.974;2023-04-06T00:11:26;7.37;;;4.77;;
16957;SDS011;8595;52.542;11.974;2023-04-06T00:13:53;7.03;;;4.20;;
16957;SDS011;8595;52.542;11.974;2023-04-06T00:16:20;8.63;;;5.27;;
16957;SDS011;8595;52.542;11.974;2023-04-06T00:18:46;6.07;;;4.60;;
16957;SDS011;8595;52.542;11.974;2023-04-06T00:21:13;8.60;;;4.40;;
16957;SDS011;8595;52.542;11.974;2023-04-06T00:23:40;5.20;;;4.13;;
16957;SDS011;8595;52.542;11.974;2023-04-06T00:26:09;6.67;;;4.30;;
16957;SDS011;8595;52.542;11.974;2023-04-06T00:28:36;6.17;;;4.00;;
16957;SDS011;8595;52.542;11.974;2023-04-06T00:31:03;4.87;;;4.10;;
16957;SDS011;8595;52.542;11.974;2023-04-06T00:33:30;5.37;;;3.83;;
16957;SDS011;8595;52.542;11.974;2023-04-06T00:35:56;6.40;;;4.43;;
16957;SDS011;8595;52.542;11.974;2023-04-06T00:38:23;6.13;;;4.60;;
16957;SDS011;8595;52.542;11.974;2023-04-06T00:40:49;6.07;;;3.97;;
16957;SDS011;8595;52.542;11.974;2023-04-06T00:43:18;5.80;;;4.57;;
16957;SDS011;8595;52.542;11.974;2023-04-06T00:45:44;6.43;;;4.73;;
16957;SDS011;8595;52.542;11.974;2023-04-06T00:48:11;6.00;;;4.87;;
16957;SDS011;8595;52.542;11.974;2023-04-06T00:50:38;8.83;;;4.57;;
16957;SDS011;8595;52.542;11.974;2023-04-06T00:53:05;7.03;;;4.67;;
16957;SDS011;8595;52.542;11.974;2023-04-06T00:55:31;6.57;;;4.83;;
16957;SDS011;8595;52.542;11.974;2023-04-06T00:58:00;5.73;;;4.43;;
16957;SDS011;8595;52.542;11.974;2023-04-06T01:00:30;9.53;;;5.03;;
16957;SDS011;8595;52.542;11.974;2023-04-06T01:02:58;7.60;;;5.13;;
16957;SDS011;8595;52.542;11.974;2023-04-06T01:05:25;5.30;;;4.17;;
16957;SDS011;8595;52.542;11.974;2023-04-06T01:07:52;7.30;;;4.53;;
16957;SDS011;8595;52.542;11.974;2023-04-06T01:10:22;6.73;;;4.87;;
16957;SDS011;8595;52.542;11.974;2023-04-06T01:12:50;6.53;;;4.17;;
16957;SDS011;8595;52.542;11.974;2023-04-06T01:15:17;5.03;;;4.13;;
16957;SDS011;8595;52.542;11.974;2023-04-06T01:17:45;6.30;;;4.67;;
16957;SDS011;8595;52.542;11.974;2023-04-06T01:20:12;7.43;;;5.03;;
16957;SDS011;8595;52.542;11.974;2023-04-06T01:22:40;6.40;;;4.33;;
16957;SDS011;8595;52.542;11.974;2023-04-06T01:25:08;6.60;;;4.50;;
16957;SDS011;8595;52.542;11.974;2023-04-06T01:27:35;5.77;;;4.47;;
16957;SDS011;8595;52.542;11.974;2023-04-06T01:30:02;7.00;;;5.10;;
16957;SDS011;8595;52.542;11.974;2023-04-06T01:32:30;5.10;;;4.40;;
16957;SDS011;8595;52.542;11.974;2023-04-06T01:34:57;5.00;;;4.50;;
16957;SDS011;8595;52.542;11.974;2023-04-06T01:37:23;5.80;;;4.40;;
16957;SDS011;8595;52.542;11.974;2023-04-06T01:39:53;7.20;;;5.60;;
16957;SDS011;8595;52.542;11.974;2023-04-06T01:42:20;7.40;;;4.77;;
16957;SDS011;8595;52.542;11.974;2023-04-06T01:44:46;9.77;;;4.57;;
16957;SDS011;8595;52.542;11.974;2023-04-06T01:47:13;5.77;;;4.63;;
16957;SDS011;8595;52.542;11.974;2023-04-06T01:49:40;9.27;;;4.87;;
16957;SDS011;8595;52.542;11.974;2023-04-06T01:52:06;5.37;;;4.47;;
16957;SDS011;8595;52.542;11.974;2023-04-06T01:54:33;6.87;;;4.30;;
16957;SDS011;8595;52.542;11.974;2023-04-06T01:57:01;7.60;;;4.30;;
16957;SDS011;8595;52.542;11.974;2023-04-06T01:59:28;6.17;;;4.47;;
16957;SDS011;8595;52.542;11.974;2023-04-06T02:01:54;6.37;;;4.60;;
16957;SDS011;8595;52.542;11.974;2023-04-06T02:04:21;7.23;;;4.50;;
16957;SDS011;8595;52.542;11.974;2023-04-06T02:06:48;6.57;;;4.37;;
16957;SDS011;8595;52.542;11.974;2023-04-06T02:09:14;6.93;;;4.17;;
16957;SDS011;8595;52.542;11.974;2023-04-06T02:11:41;5.47;;;4.43;;
16957;SDS011;8595;52.542;11.974;2023-04-06T02:14:09;7.07;;;4.20;;
16957;SDS011;8595;52.542;11.974;2023-04-06T02:16:36;9.10;;;4.80;;
16957;SDS011;8595;52.542;11.974;2023-04-06T02:19:03;10.10;;;4.10;;
16957;SDS011;8595;52.542;11.974;2023-04-06T02:21:29;7.80;;;4.53;;
16957;SDS011;8595;52.542;11.974;2023-04-06T02:23:56;7.57;;;5.00;;
16957;SDS011;8595;52.542;11.974;2023-04-06T02:26:23;8.30;;;4.43;;
16957;SDS011;8595;52.542;11.974;2023-04-06T02:28:49;7.17;;;4.90;;
16957;SDS011;8595;52.542;11.974;2023-04-06T02:31:17;7.13;;;4.47;;
16957;SDS011;8595;52.542;11.974;2023-04-06T02:33:44;5.30;;;4.80;;
16957;SDS011;8595;52.542;11.974;2023-04-06T02:36:11;8.60;;;4.90;;
16957;SDS011;8595;52.542;11.974;2023-04-06T02:38:37;6.93;;;4.80;;
16957;SDS011;8595;52.542;11.974;2023-04-06T02:41:04;8.60;;;4.90;;
16957;SDS011;8595;52.542;11.974;2023-04-06T02:43:31;8.23;;;5.33;;
16957;SDS011;8595;52.542;11.974;2023-04-06T02:45:58;8.17;;;5.10;;
16957;SDS011;8595;52.542;11.974;2023-04-06T02:48:26;7.97;;;5.43;;
16957;SDS011;8595;52.542;11.974;2023-04-06T02:50:53;6.63;;;4.63;;
16957;SDS011;8595;52.542;11.974;2023-04-06T02:53:20;5.83;;;4.77;;
16957;SDS011;8595;52.542;11.974;2023-04-06T02:55:47;6.10;;;4.67;;
16957;SDS011;8595;52.542;11.974;2023-04-06T02:58:13;6.67;;;4.90;;
16957;SDS011;8595;52.542;11.974;2023-04-06T03:00:40;7.57;;;5.20;;
16957;SDS011;8595;52.542;11.974;2023-04-06T03:03:07;7.03;;;4.87;;
16957;SDS011;8595;52.542;11.974;2023-04-06T03:05:35;8.47;;;5.83;;
16957;SDS011;8595;52.542;11.974;2023-04-06T03:08:01;6.53;;;5.57;;
16957;SDS011;8595;52.542;11.974;2023-04-06T03:10:28;7.20;;;5.30;;
16957;SDS011;8595;52.542;11.974;2023-04-06T03:12:56;6.13;;;4.90;;
16957;SDS011;8595;52.542;11.974;2023-04-06T03:15:22;5.97;;;4.87;;
16957;SDS011;8595;52.542;11.974;2023-04-06T03:17:49;5.50;;;4.97;;
16957;SDS011;8595;52.542;11.974;2023-04-06T03:20:16;8.10;;;5.93;;
16957;SDS011;8595;52.542;11.974;2023-04-06T03:22:44;8.03;;;5.00;;
16957;SDS011;8595;52.542;11.974;2023-04-06T03:25:11;7.33;;;5.80;;
16957;SDS011;8595;52.542;11.974;2023-04-06T03:27:38;8.43;;;6.07;;
16957;SDS011;8595;52.542;11.974;2023-04-06T03:30:05;5.97;;;5.37;;
16957;SDS011;8595;52.542;11.974;2023-04-06T03:32:33;7.47;;;5.57;;
16957;SDS011;8595;52.542;11.974;2023-04-06T03:34:59;7.40;;;5.30;;
16957;SDS011;8595;52.542;11.974;2023-04-06T03:37:26;6.90;;;5.43;;
16957;SDS011;8595;52.542;11.974;2023-04-06T03:39:54;8.10;;;5.23;;
16957;SDS011;8595;52.542;11.974;2023-04-06T03:42:21;10.30;;;5.93;;
16957;SDS011;8595;52.542;11.974;2023-04-06T03:44:47;6.47;;;5.03;;
16957;SDS011;8595;52.542;11.974;2023-04-06T03:47:14;9.37;;;5.93;;
16957;SDS011;8595;52.542;11.974;2023-04-06T03:49:41;7.93;;;5.90;;
16957;SDS011;8595;52.542;11.974;2023-04-06T03:52:07;9.00;;;5.73;;
16957;SDS011;8595;52.542;11.974;2023-04-06T03:54:34;6.63;;;5.47;;
16957;SDS011;8595;52.542;11.974;2023-04-06T03:57:03;11.47;;;6.00;;
16957;SDS011;8595;52.542;11.974;2023-04-06T03:59:30;9.10;;;5.40;;
16957;SDS011;8595;52.542;11.974;2023-04-06T04:01:57;7.10;;;5.43;;
16957;SDS011;8595;52.542;11.974;2023-04-06T04:04:23;9.70;;;5.70;;
16957;SDS011;8595;52.542;11.974;2023-04-06T04:06:50;9.10;;;5.57;;
16957;SDS011;8595;52.542;11.974;2023-04-06T04:09:17;12.47;;;7.13;;
16957;SDS011;8595;52.542;11.974;2023-04-06T04:11:43;8.20;;;5.47;;
16957;SDS011;8595;52.542;11.974;2023-04-06T04:14:11;8.23;;;5.77;;
16957;SDS011;8595;52.542;11.974;2023-04-06T04:16:38;9.57;;;6.10;;
16957;SDS011;8595;52.542;11.974;2023-04-06T04:19:06;10.40;;;6.63;;
16957;SDS011;8595;52.542;11.974;2023-04-06T04:21:33;8.07;;;5.40;;
16957;SDS011;8595;52.542;11.974;2023-04-06T04:23:59;8.80;;;5.80;;
16957;SDS011;8595;52.542;11.974;2023-04-06T04:26:26;8.00;;;5.47;;
16957;SDS011;8595;52.542;11.974;2023-04-06T04:28:53;7.33;;;5.40;;
16957;SDS011;8595;52.542;11.974;2023-04-06T04:31:21;9.87;;;5.90;;
16957;SDS011;8595;52.542;11.974;2023-04-06T04:33:48;10.53;;;5.73;;
16957;SDS011;8595;52.542;11.974;2023-04-06T04:36:15;9.00;;;5.63;;
16957;SDS011;8595;52.542;11.974;2023-04-06T04:38:41;8.50;;;5.80;;
16957;SDS011;8595;52.542;11.974;2023-04-06T04:41:08;8.37;;;6.30;;
16957;SDS011;8595;52.542;11.974;2023-04-06T04:43:35;6.63;;;5.93;;
16957;SDS011;8595;52.542;11.974;2023-04-06T04:46:01;7.67;;;6.00;;
16957;SDS011;8595;52.542;11.974;2023-04-06T04:48:30;6.83;;;6.07;;
16957;SDS011;8595;52.542;11.974;2023-04-06T04:50:57;8.33;;;6.13;;
16957;SDS011;8595;52.542;11.974;2023-04-06T04:53:24;8.37;;;6.20;;
16957;SDS011;8595;52.542;11.974;2023-04-06T04:55:51;10.40;;;5.90;;
16957;SDS011;8595;52.542;11.974;2023-04-06T04:58:17;10.03;;;6.23;;
16957;SDS011;8595;52.542;11.974;2023-04-06T05:00:44;9.27;;;6.40;;
16957;SDS011;8595;52.542;11.974;2023-04-06T05:03:11;10.50;;;6.33;;
16957;SDS011;8595;52.542;11.974;2023-04-06T05:05:44;6.90;;;6.20;;
16957;SDS011;8595;52.542;11.974;2023-04-06T05:08:11;8.30;;;6.40;;
16957;SDS011;8595;52.542;11.974;2023-04-06T05:10:38;13.37;;;6.10;;
16957;SDS011;8595;52.542;11.974;2023-04-06T05:13:05;9.33;;;5.70;;
16957;SDS011;8595;52.542;11.974;2023-04-06T05:15:31;8.43;;;5.90;;
16957;SDS011;8595;52.542;11.974;2023-04-06T05:18:00;7.83;;;6.30;;
16957;SDS011;8595;52.542;11.974;2023-04-06T05:20:26;7.90;;;5.77;;
16957;SDS011;8595;52.542;11.974;2023-04-06T05:22:55;8.17;;;5.97;;
16957;SDS011;8595;52.542;11.974;2023-04-06T05:25:21;9.30;;;6.37;;
16957;SDS011;8595;52.542;11.974;2023-04-06T05:27:48;8.30;;;6.30;;
16957;SDS011;8595;52.542;11.974;2023-04-06T05:30:15;9.43;;;6.10;;
16957;SDS011;8595;52.542;11.974;2023-04-06T05:32:42;8.63;;;6.50;;
16957;SDS011;8595;52.542;11.974;2023-04-06T05:35:09;12.03;;;6.33;;
16957;SDS011;8595;52.542;11.974;2023-04-06T05:37:36;9.23;;;6.33;;
16957;SDS011;8595;52.542;11.974;2023-04-06T05:40:05;10.27;;;6.17;;
16957;SDS011;8595;52.542;11.974;2023-04-06T05:42:35;8.47;;;6.27;;
16957;SDS011;8595;52.542;11.974;2023-04-06T05:45:03;8.23;;;6.00;;
16957;SDS011;8595;52.542;11.974;2023-04-06T05:47:31;8.87;;;6.53;;
16957;SDS011;8595;52.542;11.974;2023-04-06T05:49:57;10.03;;;6.40;;
16957;SDS011;8595;52.542;11.974;2023-04-06T05:52:24;8.93;;;6.60;;
16957;SDS011;8595;52.542;11.974;2023-04-06T05:54:51;9.53;;;6.80;;
16957;SDS011;8595;52.542;11.974;2023-04-06T05:57:19;9.50;;;6.97;;
16957;SDS011;8595;52.542;11.974;2023-04-06T05:59:47;9.60;;;6.83;;
16957;SDS011;8595;52.542;11.974;2023-04-06T06:02:13;7.27;;;6.03;;
16957;SDS011;8595;52.542;11.974;2023-04-06T06:04:40;8.43;;;6.43;;
16957;SDS011;8595;52.542;11.974;2023-04-06T06:07:07;7.63;;;6.13;;
16957;SDS011;8595;52.542;11.974;2023-04-06T06:09:33;7.67;;;6.80;;
16957;SDS011;8595;52.542;11.974;2023-04-06T06:12:00;10.37;;;6.60;;
16957;SDS011;8595;52.542;11.974;2023-04-06T06:14:28;10.77;;;7.00;;
16957;SDS011;8595;52.542;11.974;2023-04-06T06:16:55;9.60;;;6.73;;
16957;SDS011;8595;52.542;11.974;2023-04-06T06:19:22;10.27;;;7.37;;
16957;SDS011;8595;52.542;11.974;2023-04-06T06:21:48;10.53;;;6.87;;
16957;SDS011;8595;52.542;11.974;2023-04-06T06:24:15;10.83;;;8.10;;
16957;SDS011;8595;52.542;11.974;2023-04-06T06:26:41;8.50;;;7.57;;
16957;SDS011;8595;52.542;11.974;2023-04-06T06:29:08;12.20;;;7.80;;
16957;SDS011;8595;52.542;11.974;2023-04-06T06:31:36;12.10;;;7.37;;
16957;SDS011;8595;52.542;11.974;2023-04-06T06:34:03;9.30;;;6.93;;
16957;SDS011;8595;52.542;11.974;2023-04-06T06:36:30;10.43;;;7.80;;
16957;SDS011;8595;52.542;11.974;2023-04-06T06:38:57;11.20;;;6.97;;
16957;SDS011;8595;52.542;11.974;2023-04-06T06:41:25;13.13;;;7.90;;
16957;SDS011;8595;52.542;11.974;2023-04-06T06:43:52;10.67;;;8.07;;
16957;SDS011;8595;52.542;11.974;2023-04-06T06:46:19;12.03;;;7.73;;
16957;SDS011;8595;52.542;11.974;2023-04-06T06:48:47;11.53;;;7.73;;
16957;SDS011;8595;52.542;11.974;2023-04-06T06:51:14;8.87;;;7.07;;
16957;SDS011;8595;52.542;11.974;2023-04-06T06:53:41;9.27;;;6.97;;
16957;SDS011;8595;52.542;11.974;2023-04-06T06:56:07;14.93;;;8.67;;
16957;SDS011;8595;52.542;11.974;2023-04-06T06:58:34;10.07;;;7.13;;
16957;SDS011;8595;52.542;11.974;2023-04-06T07:01:01;9.77;;;7.17;;
16957;SDS011;8595;52.542;11.974;2023-04-06T07:03:29;8.73;;;7.40;;
16957;SDS011;8595;52.542;11.974;2023-04-06T07:05:58;9.47;;;7.57;;
16957;SDS011;8595;52.542;11.974;2023-04-06T07:08:25;13.90;;;8.03;;
16957;SDS011;8595;52.542;11.974;2023-04-06T07:10:52;12.53;;;7.33;;
16957;SDS011;8595;52.542;11.974;2023-04-06T07:13:21;11.23;;;7.07;;
16957;SDS011;8595;52.542;11.974;2023-04-06T07:15:48;13.13;;;8.30;;
16957;SDS011;8595;52.542;11.974;2023-04-06T07:18:15;12.00;;;7.97;;
16957;SDS011;8595;52.542;11.974;2023-04-06T07:20:42;11.03;;;8.30;;
16957;SDS011;8595;52.542;11.974;2023-04-06T07:23:10;9.33;;;7.40;;
16957;SDS011;8595;52.542;11.974;2023-04-06T07:25:37;10.30;;;7.53;;
16957;SDS011;8595;52.542;11.974;2023-04-06T07:28:03;11.37;;;7.80;;
16957;SDS011;8595;52.542;11.974;2023-04-06T07:30:30;10.50;;;8.10;;
16957;SDS011;8595;52.542;11.974;2023-04-06T07:32:57;12.87;;;8.40;;
16957;SDS011;8595;52.542;11.974;2023-04-06T07:35:25;10.40;;;7.10;;
16957;SDS011;8595;52.542;11.974;2023-04-06T07:37:52;8.83;;;7.20;;
16957;SDS011;8595;52.542;11.974;2023-04-06T07:40:21;9.97;;;7.37;;
16957;SDS011;8595;52.542;11.974;2023-04-06T07:42:48;9.77;;;8.17;;
16957;SDS011;8595;52.542;11.974;2023-04-06T07:45:15;9.47;;;7.37;;
16957;SDS011;8595;52.542;11.974;2023-04-06T07:47:42;12.93;;;7.07;;
16957;SDS011;8595;52.542;11.974;2023-04-06T07:50:09;9.33;;;6.43;;
16957;SDS011;8595;52.542;11.974;2023-04-06T07:52:36;7.47;;;6.33;;
16957;SDS011;8595;52.542;11.974;2023-04-06T07:55:03;7.37;;;6.30;;
16957;SDS011;8595;52.542;11.974;2023-04-06T07:57:31;10.63;;;6.00;;
16957;SDS011;8595;52.542;11.974;2023-04-06T07:59:58;6.97;;;5.67;;
16957;SDS011;8595;52.542;11.974;2023-04-06T08:02:25;8.83;;;6.00;;
16957;SDS011;8595;52.542;11.974;2023-04-06T08:04:53;7.50;;;5.10;;
16957;SDS011;8595;52.542;11.974;2023-04-06T08:07:19;7.97;;;5.20;;
16957;SDS011;8595;52.542;11.974;2023-04-06T08:09:46;6.10;;;4.70;;
16957;SDS011;8595;52.542;11.974;2023-04-06T08:12:13;5.75;;;4.45;;
16957;SDS011;8595;52.542;11.974;2023-04-06T08:14:41;6.53;;;4.72;;
16957;SDS011;8595;52.542;11.974;2023-04-06T08:17:08;5.35;;;4.68;;
16957;SDS011;8595;52.542;11.974;2023-04-06T08:19:35;6.35;;;5.10;;
16957;SDS011;8595;52.542;11.974;2023-04-06T08:22:02;4.80;;;4.30;;
16957;SDS011;8595;52.542;11.974;2023-04-06T08:24:29;7.15;;;4.40;;
16957;SDS011;8595;52.542;11.974;2023-04-06T08:26:57;5.32;;;4.82;;
16957;SDS011;8595;52.542;11.974;2023-04-06T08:29:24;6.63;;;5.88;;
16957;SDS011;8595;52.542;11.974;2023-04-06T08:31:52;6.45;;;5.20;;
16957;SDS011;8595;52.542;11.974;2023-04-06T08:34:19;6.15;;;5.07;;
16957;SDS011;8595;52.542;11.974;2023-04-06T08:36:46;9.35;;;5.40;;
16957;SDS011;8595;52.542;11.974;2023-04-06T08:39:13;7.40;;;5.88;;
16957;SDS011;8595;52.542;11.974;2023-04-06T08:41:41;5.97;;;5.10;;
16957;SDS011;8595;52.542;11.974;2023-04-06T08:44:08;5.43;;;4.57;;
16957;SDS011;8595;52.542;11.974;2023-04-06T08:46:35;7.47;;;4.82;;
16957;SDS011;8595;52.542;11.974;2023-04-06T08:49:03;6.03;;;4.60;;
16957;SDS011;8595;52.542;11.974;2023-04-06T08:51:31;6.05;;;5.45;;
16957;SDS011;8595;52.542;11.974;2023-04-06T08:53:59;5.60;;;5.10;;
16957;SDS011;8595;52.542;11.974;2023-04-06T08:56:26;6.50;;;5.03;;
16957;SDS011;8595;52.542;11.974;2023-04-06T08:58:54;6.38;;;5.72;;
16957;SDS011;8595;52.542;11.974;2023-04-06T09:01:22;7.13;;;6.38;;
16957;SDS011;8595;52.542;11.974;2023-04-06T09:03:51;7.70;;;6.65;;
16957;SDS011;8595;52.542;11.974;2023-04-06T09:06:24;8.45;;;6.10;;
16957;SDS011;8595;52.542;11.974;2023-04-06T09:08:52;7.40;;;6.55;;
16957;SDS011;8595;52.542;11.974;2023-04-06T09:11:19;6.72;;;5.60;;
16957;SDS011;8595;52.542;11.974;2023-04-06T09:13:47;6.93;;;5.93;;
16957;SDS011;8595;52.542;11.974;2023-04-06T09:16:15;7.95;;;5.72;;
16957;SDS011;8595;52.542;11.974;2023-04-06T09:18:42;7.35;;;5.85;;
16957;SDS011;8595;52.542;11.974;2023-04-06T09:21:09;7.30;;;5.95;;
16957;SDS011;8595;52.542;11.974;2023-04-06T09:23:37;6.68;;;5.88;;
16957;SDS011;8595;52.542;11.974;2023-04-06T09:26:09;6.68;;;5.40;;
16957;SDS011;8595;52.542;11.974;2023-04-06T09:28:43;8.13;;;6.50;;
16957;SDS011;8595;52.542;11.974;2023-04-06T09:31:11;7.45;;;6.00;;
16957;SDS011;8595;52.542;11.974;2023-04-06T09:33:39;7.28;;;6.45;;
16957;SDS011;8595;52.542;11.974;2023-04-06T09:36:07;8.77;;;6.63;;
16957;SDS011;8595;52.542;11.974;2023-04-06T09:38:35;7.60;;;6.80;;
16957;SDS011;8595;52.542;11.974;2023-04-06T09:41:04;7.93;;;4.93;;
16957;SDS011;8595;52.542;11.974;2023-04-06T09:43:31;7.97;;;6.70;;
16957;SDS011;8595;52.542;11.974;2023-04-06T09:45:58;7.68;;;5.88;;
16957;SDS011;8595;52.542;11.974;2023-04-06T09:48:28;7.70;;;6.25;;
16957;SDS011;8595;52.542;11.974;2023-04-06T09:51:00;6.25;;;5.65;;
16957;SDS011;8595;52.542;11.974;2023-04-06T09:53:30;7.93;;;6.35;;
16957;SDS011;8595;52.542;11.974;2023-04-06T09:56:01;6.35;;;5.28;;
16957;SDS011;8595;52.542;11.974;2023-04-06T09:58:31;9.05;;;5.20;;
16957;SDS011;8595;52.542;11.974;2023-04-06T10:01:01;6.05;;;5.18;;
16957;SDS011;8595;52.542;11.974;2023-04-06T10:03:33;7.22;;;5.90;;
16957;SDS011;8595;52.542;11.974;2023-04-06T10:06:09;8.20;;;6.30;;
16957;SDS011;8595;52.542;11.974;2023-04-06T10:08:39;6.75;;;5.38;;
16957;SDS011;8595;52.542;11.974;2023-04-06T10:11:08;7.20;;;6.05;;
16957;SDS011;8595;52.542;11.974;2023-04-06T10:13:35;6.28;;;5.63;;
16957;SDS011;8595;52.542;11.974;2023-04-06T10:16:02;10.10;;;6.30;;
16957;SDS011;8595;52.542;11.974;2023-04-06T10:18:31;7.22;;;5.82;;
16957;SDS011;8595;52.542;11.974;2023-04-06T10:21:00;6.43;;;5.22;;
16957;SDS011;8595;52.542;11.974;2023-04-06T10:23:32;8.45;;;5.70;;
16957;SDS011;8595;52.542;11.974;2023-04-06T10:26:02;5.97;;;5.38;;
16957;SDS011;8595;52.542;11.974;2023-04-06T10:28:32;6.72;;;6.03;;
16957;SDS011;8595;52.542;11.974;2023-04-06T10:31:01;7.28;;;6.00;;
16957;SDS011;8595;52.542;11.974;2023-04-06T10:33:30;8.13;;;5.97;;
16957;SDS011;8595;52.542;11.974;2023-04-06T10:35:57;12.63;;;6.28;;
16957;SDS011;8595;52.542;11.974;2023-04-06T10:38:33;7.80;;;6.63;;
16957;SDS011;8595;52.542;11.974;2023-04-06T10:41:03;6.68;;;6.03;;
16957;SDS011;8595;52.542;11.974;2023-04-06T10:43:34;5.70;;;5.20;;
16957;SDS011;8595;52.542;11.974;2023-04-06T10:46:01;8.52;;;6.05;;
16957;SDS011;8595;52.542;11.974;2023-04-06T10:48:36;8.05;;;6.32;;
16957;SDS011;8595;52.542;11.974;2023-04-06T10:51:07;6.18;;;5.57;;
16957;SDS011;8595;52.542;11.974;2023-04-06T10:53:35;8.45;;;6.20;;
16957;SDS011;8595;52.542;11.974;2023-04-06T10:56:02;8.43;;;6.82;;
16957;SDS011;8595;52.542;11.974;2023-04-06T10:58:30;7.97;;;6.50;;
16957;SDS011;8595;52.542;11.974;2023-04-06T11:00:58;7.68;;;6.88;;
16957;SDS011;8595;52.542;11.974;2023-04-06T11:03:25;6.22;;;5.63;;
16957;SDS011;8595;52.542;11.974;2023-04-06T11:05:52;7.72;;;5.93;;
16957;SDS011;8595;52.542;11.974;2023-04-06T11:08:22;6.55;;;5.88;;
16957;SDS011;8595;52.542;11.974;2023-04-06T11:10:49;6.65;;;5.50;;
16957;SDS011;8595;52.542;11.974;2023-04-06T11:13:16;6.88;;;6.18;;
16957;SDS011;8595;52.542;11.974;2023-04-06T11:15:43;11.43;;;6.53;;
16957;SDS011;8595;52.542;11.974;2023-04-06T11:18:11;7.63;;;6.53;;
16957;SDS011;8595;52.542;11.974;2023-04-06T11:20:38;7.13;;;5.85;;
16957;SDS011;8595;52.542;11.974;2023-04-06T11:23:06;7.68;;;6.15;;
16957;SDS011;8595;52.542;11.974;2023-04-06T11:25:33;6.50;;;5.80;;
16957;SDS011;8595;52.542;11.974;2023-04-06T11:28:00;6.88;;;5.72;;
16957;SDS011;8595;52.542;11.974;2023-04-06T11:30:26;7.15;;;6.00;;
16957;SDS011;8595;52.542;11.974;2023-04-06T11:32:59;7.68;;;5.97;;
16957;SDS011;8595;52.542;11.974;2023-04-06T11:35:28;9.02;;;6.15;;
16957;SDS011;8595;52.542;11.974;2023-04-06T11:37:58;6.22;;;5.63;;
16957;SDS011;8595;52.542;11.974;2023-04-06T11:40:29;11.95;;;7.43;;
16957;SDS011;8595;52.542;11.974;2023-04-06T11:42:58;7.13;;;6.45;;
16957;SDS011;8595;52.542;11.974;2023-04-06T11:45:38;6.63;;;6.03;;
16957;SDS011;8595;52.542;11.974;2023-04-06T12:44:53;9.05;;;8.15;;
16957;SDS011;8595;52.542;11.974;2023-04-06T12:47:20;11.40;;;8.57;;
16957;SDS011;8595;52.542;11.974;2023-04-06T12:49:47;9.95;;;8.35;;
16957;SDS011;8595;52.542;11.974;2023-04-06T12:52:15;8.88;;;8.05;;
16957;SDS011;8595;52.542;11.974;2023-04-06T12:54:41;10.18;;;8.57;;
16957;SDS011;8595;52.542;11.974;2023-04-06T12:57:08;8.98;;;8.13;;
16957;SDS011;8595;52.542;11.974;2023-04-06T12:59:37;22.48;;;13.00;;
16957;SDS011;8595;52.542;11.974;2023-04-06T13:02:04;11.90;;;9.02;;
16957;SDS011;8595;52.542;11.974;2023-04-06T13:04:31;9.27;;;8.25;;
16957;SDS011;8595;52.542;11.974;2023-04-06T13:06:58;8.57;;;7.78;;
16957;SDS011;8595;52.542;11.974;2023-04-06T13:09:25;8.75;;;7.85;;
16957;SDS011;8595;52.542;11.974;2023-04-06T13:11:51;10.18;;;9.13;;
16957;SDS011;8595;52.542;11.974;2023-04-06T13:14:18;12.80;;;9.82;;
16957;SDS011;8595;52.542;11.974;2023-04-06T13:16:47;14.73;;;11.18;;
16957;SDS011;8595;52.542;11.974;2023-04-06T13:19:14;11.18;;;9.98;;
16957;SDS011;8595;52.542;11.974;2023-04-06T13:21:41;9.60;;;8.70;;
16957;SDS011;8595;52.542;11.974;2023-04-06T13:24:08;9.43;;;8.13;;
16957;SDS011;8595;52.542;11.974;2023-04-06T13:26:35;9.23;;;8.27;;
16957;SDS011;8595;52.542;11.974;2023-04-06T13:29:01;9.75;;;8.85;;
16957;SDS011;8595;52.542;11.974;2023-04-06T13:31:28;10.20;;;8.43;;
16957;SDS011;8595;52.542;11.974;2023-04-06T13:33:56;11.90;;;8.65;;
16957;SDS011;8595;52.542;11.974;2023-04-06T13:36:23;10.15;;;9.07;;
16957;SDS011;8595;52.542;11.974;2023-04-06T13:38:51;9.90;;;8.90;;
16957;SDS011;8595;52.542;11.974;2023-04-06T13:41:21;8.75;;;7.80;;
16957;SDS011;8595;52.542;11.974;2023-04-06T13:43:49;10.88;;;9.18;;
16957;SDS011;8595;52.542;11.974;2023-04-06T13:46:15;9.25;;;8.05;;
16957;SDS011;8595;52.542;11.974;2023-04-06T13:48:42;10.30;;;9.30;;
16957;SDS011;8595;52.542;11.974;2023-04-06T13:51:11;9.32;;;8.00;;
16957;SDS011;8595;52.542;11.974;2023-04-06T13:53:38;10.10;;;9.07;;
16957;SDS011;8595;52.542;11.974;2023-04-06T13:56:06;10.00;;;8.70;;
16957;SDS011;8595;52.542;11.974;2023-04-06T13:58:33;9.73;;;8.43;;
16957;SDS011;8595;52.542;11.974;2023-04-06T14:01:04;9.07;;;8.18;;
16957;SDS011;8595;52.542;11.974;2023-04-06T14:03:32;10.90;;;9.80;;
16957;SDS011;8595;52.542;11.974;2023-04-06T14:05:58;11.73;;;10.50;;
16957;SDS011;8595;52.542;11.974;2023-04-06T14:08:27;9.82;;;8.93;;
16957;SDS011;8595;52.542;11.974;2023-04-06T14:10:54;10.40;;;9.30;;
16957;SDS011;8595;52.542;11.974;2023-04-06T14:13:21;9.90;;;8.88;;
16957;SDS011;8595;52.542;11.974;2023-04-06T14:15:52;9.35;;;8.30;;
16957;SDS011;8595;52.542;11.974;2023-04-06T14:18:19;9.00;;;8.20;;
16957;SDS011;8595;52.542;11.974;2023-04-06T14:20:46;9.85;;;8.45;;
16957;SDS011;8595;52.542;11.974;2023-04-06T14:23:20;9.15;;;8.25;;
16957;SDS011;8595;52.542;11.974;2023-04-06T14:25:48;9.13;;;8.23;;
16957;SDS011;8595;52.542;11.974;2023-04-06T14:28:15;10.23;;;9.23;;
16957;SDS011;8595;52.542;11.974;2023-04-06T14:30:42;8.80;;;7.80;;
16957;SDS011;8595;52.542;11.974;2023-04-06T14:33:09;9.07;;;8.27;;
16957;SDS011;8595;52.542;11.974;2023-04-06T14:35:37;8.60;;;7.80;;
16957;SDS011;8595;52.542;11.974;2023-04-06T14:38:04;8.35;;;7.43;;
16957;SDS011;8595;52.542;11.974;2023-04-06T14:40:34;10.60;;;9.55;;
16957;SDS011;8595;52.542;11.974;2023-04-06T14:43:04;9.32;;;8.18;;
16957;SDS011;8595;52.542;11.974;2023-04-06T14:45:32;10.30;;;9.18;;
16957;SDS011;8595;52.542;11.974;2023-04-06T14:47:59;8.35;;;7.50;;
16957;SDS011;8595;52.542;11.974;2023-04-06T14:50:26;9.57;;;8.68;;
16957;SDS011;8595;52.542;11.974;2023-04-06T14:52:52;10.77;;;9.25;;
16957;SDS011;8595;52.542;11.974;2023-04-06T14:55:20;10.43;;;9.43;;
16957;SDS011;8595;52.542;11.974;2023-04-06T14:57:47;11.15;;;9.85;;
16957;SDS011;8595;52.542;11.974;2023-04-06T15:00:16;10.43;;;8.65;;
16957;SDS011;8595;52.542;11.974;2023-04-06T15:02:43;10.18;;;8.48;;
16957;SDS011;8595;52.542;11.974;2023-04-06T15:05:09;9.32;;;8.23;;
16957;SDS011;8595;52.542;11.974;2023-04-06T15:07:37;9.30;;;8.38;;
16957;SDS011;8595;52.542;11.974;2023-04-06T15:10:04;9.23;;;8.32;;
16957;SDS011;8595;52.542;11.974;2023-04-06T15:12:31;10.88;;;9.77;;
16957;SDS011;8595;52.542;11.974;2023-04-06T15:14:58;10.20;;;9.20;;
16957;SDS011;8595;52.542;11.974;2023-04-06T15:17:27;10.75;;;9.30;;
16957;SDS011;8595;52.542;11.974;2023-04-06T15:19:53;11.98;;;9.48;;
16957;SDS011;8595;52.542;11.974;2023-04-06T15:22:20;9.20;;;8.23;;
16957;SDS011;8595;52.542;11.974;2023-04-06T15:24:47;10.02;;;8.98;;
16957;SDS011;8595;52.542;11.974;2023-04-06T15:27:13;9.68;;;8.68;;
16957;SDS011;8595;52.542;11.974;2023-04-06T15:29:41;9.82;;;8.82;;
16957;SDS011;8595;52.542;11.974;2023-04-06T15:32:08;10.48;;;9.40;;
16957;SDS011;8595;52.542;11.974;2023-04-06T15:34:36;10.23;;;8.18;;
16957;SDS011;8595;52.542;11.974;2023-04-06T15:37:03;9.40;;;8.05;;
16957;SDS011;8595;52.542;11.974;2023-04-06T15:39:30;9.57;;;8.60;;
16957;SDS011;8595;52.542;11.974;2023-04-06T15:41:58;9.02;;;8.23;;
16957;SDS011;8595;52.542;11.974;2023-04-06T15:44:25;11.30;;;8.98;;